sensor_id;sensor_type;location;lat;lon;timestamp;temperature;humidity
44063;DHT22;29727;47.606;19.130;2022-12-24T00:02:13;7.30;88.10
44063;DHT22;29727;47.606;19.130;2022-12-24T00:04:38;7.30;88.60
44063;DHT22;29727;47.606;19.130;2022-12-24T00:07:04;7.30;88.20
44063;DHT22;29727;47.606;19.130;2022-12-24T00:09:30;7.30;87.70
44063;DHT22;29727;47.606;19.130;2022-12-24T00:11:55;7.40;87.90
44063;DHT22;29727;47.606;19.130;2022-12-24T00:14:21;7.30;87.30
44063;DHT22;29727;47.606;19.130;2022-12-24T00:16:47;7.30;87.30
44063;DHT22;29727;47.606;19.130;2022-12-24T00:19:12;7.40;87.60
44063;DHT22;29727;47.606;19.130;2022-12-24T00:21:38;7.40;87.70
44063;DHT22;29727;47.606;19.130;2022-12-24T00:24:04;7.40;87.60
44063;DHT22;29727;47.606;19.130;2022-12-24T00:26:31;7.50;86.00
44063;DHT22;29727;47.606;19.130;2022-12-24T00:28:57;7.50;85.60
44063;DHT22;29727;47.606;19.130;2022-12-24T00:31:23;7.50;85.90
44063;DHT22;29727;47.606;19.130;2022-12-24T00:33:49;7.40;86.30
44063;DHT22;29727;47.606;19.130;2022-12-24T00:36:15;7.40;86.60
44063;DHT22;29727;47.606;19.130;2022-12-24T00:38:41;7.40;87.00
44063;DHT22;29727;47.606;19.130;2022-12-24T00:41:08;7.40;87.10
44063;DHT22;29727;47.606;19.130;2022-12-24T00:43:52;7.50;87.30
44063;DHT22;29727;47.606;19.130;2022-12-24T00:46:18;7.50;87.40
44063;DHT22;29727;47.606;19.130;2022-12-24T00:48:44;7.50;87.30
44063;DHT22;29727;47.606;19.130;2022-12-24T00:51:09;7.50;87.20
44063;DHT22;29727;47.606;19.130;2022-12-24T00:53:35;7.50;87.10
44063;DHT22;29727;47.606;19.130;2022-12-24T00:56:01;7.60;86.80
44063;DHT22;29727;47.606;19.130;2022-12-24T00:58:26;7.60;86.60
44063;DHT22;29727;47.606;19.130;2022-12-24T01:00:52;7.60;86.10
44063;DHT22;29727;47.606;19.130;2022-12-24T01:03:17;7.60;86.00
44063;DHT22;29727;47.606;19.130;2022-12-24T01:05:43;7.60;86.10
44063;DHT22;29727;47.606;19.130;2022-12-24T01:08:09;7.60;85.40
44063;DHT22;29727;47.606;19.130;2022-12-24T01:10:34;7.60;85.10
44063;DHT22;29727;47.606;19.130;2022-12-24T01:13:01;7.60;85.20
44063;DHT22;29727;47.606;19.130;2022-12-24T01:15:27;7.60;85.40
44063;DHT22;29727;47.606;19.130;2022-12-24T01:17:53;7.60;85.90
44063;DHT22;29727;47.606;19.130;2022-12-24T01:20:20;7.60;85.90
44063;DHT22;29727;47.606;19.130;2022-12-24T01:22:45;7.60;86.00
44063;DHT22;29727;47.606;19.130;2022-12-24T01:25:13;7.50;86.30
44063;DHT22;29727;47.606;19.130;2022-12-24T01:27:38;7.50;86.70
44063;DHT22;29727;47.606;19.130;2022-12-24T01:30:05;7.50;87.30
44063;DHT22;29727;47.606;19.130;2022-12-24T01:32:31;7.50;87.20
44063;DHT22;29727;47.606;19.130;2022-12-24T01:34:57;7.50;87.10
44063;DHT22;29727;47.606;19.130;2022-12-24T01:37:24;7.50;86.80
44063;DHT22;29727;47.606;19.130;2022-12-24T01:39:50;7.50;87.00
44063;DHT22;29727;47.606;19.130;2022-12-24T01:42:21;7.50;87.30
44063;DHT22;29727;47.606;19.130;2022-12-24T01:47:56;7.60;87.50
44063;DHT22;29727;47.606;19.130;2022-12-24T01:50:22;7.60;87.60
44063;DHT22;29727;47.606;19.130;2022-12-24T01:52:48;7.60;87.80
44063;DHT22;29727;47.606;19.130;2022-12-24T01:55:15;7.60;88.00
44063;DHT22;29727;47.606;19.130;2022-12-24T01:57:48;7.60;87.90
44063;DHT22;29727;47.606;19.130;2022-12-24T02:00:16;7.70;87.70
44063;DHT22;29727;47.606;19.130;2022-12-24T02:02:44;7.70;87.40
44063;DHT22;29727;47.606;19.130;2022-12-24T02:05:26;7.70;87.40
44063;DHT22;29727;47.606;19.130;2022-12-24T02:07:54;7.70;87.60
44063;DHT22;29727;47.606;19.130;2022-12-24T02:10:21;7.70;87.70
44063;DHT22;29727;47.606;19.130;2022-12-24T02:12:48;7.70;88.00
44063;DHT22;29727;47.606;19.130;2022-12-24T02:15:17;7.70;88.00
44063;DHT22;29727;47.606;19.130;2022-12-24T02:20:45;7.70;88.20
44063;DHT22;29727;47.606;19.130;2022-12-24T02:37:23;7.90;89.00
44063;DHT22;29727;47.606;19.130;2022-12-24T02:40:02;7.90;88.30
44063;DHT22;29727;47.606;19.130;2022-12-24T02:42:35;8.00;88.00
44063;DHT22;29727;47.606;19.130;2022-12-24T02:45:11;8.00;88.00
44063;DHT22;29727;47.606;19.130;2022-12-24T02:47:38;8.00;88.10
44063;DHT22;29727;47.606;19.130;2022-12-24T02:50:08;8.00;88.30
44063;DHT22;29727;47.606;19.130;2022-12-24T02:52:39;8.00;88.40
44063;DHT22;29727;47.606;19.130;2022-12-24T02:58:16;8.00;88.70
44063;DHT22;29727;47.606;19.130;2022-12-24T03:03:59;8.00;88.10
44063;DHT22;29727;47.606;19.130;2022-12-24T03:06:49;8.00;88.10
44063;DHT22;29727;47.606;19.130;2022-12-24T03:12:16;8.10;87.70
44063;DHT22;29727;47.606;19.130;2022-12-24T03:14:47;8.10;87.40
44063;DHT22;29727;47.606;19.130;2022-12-24T03:17:14;8.10;86.90
44063;DHT22;29727;47.606;19.130;2022-12-24T03:19:40;8.10;87.20
44063;DHT22;29727;47.606;19.130;2022-12-24T03:22:08;8.00;87.30
44063;DHT22;29727;47.606;19.130;2022-12-24T03:24:35;8.00;87.90
44063;DHT22;29727;47.606;19.130;2022-12-24T03:27:01;8.00;87.90
44063;DHT22;29727;47.606;19.130;2022-12-24T03:29:27;8.00;88.10
44063;DHT22;29727;47.606;19.130;2022-12-24T03:31:59;8.00;88.30
44063;DHT22;29727;47.606;19.130;2022-12-24T03:34:25;8.10;88.30
44063;DHT22;29727;47.606;19.130;2022-12-24T03:36:51;8.00;88.10
44063;DHT22;29727;47.606;19.130;2022-12-24T03:39:17;8.00;88.40
44063;DHT22;29727;47.606;19.130;2022-12-24T03:41:43;8.10;88.30
44063;DHT22;29727;47.606;19.130;2022-12-24T03:44:09;8.10;88.70
44063;DHT22;29727;47.606;19.130;2022-12-24T03:46:34;8.10;88.10
44063;DHT22;29727;47.606;19.130;2022-12-24T03:49:00;8.10;87.90
44063;DHT22;29727;47.606;19.130;2022-12-24T03:51:26;8.10;87.60
44063;DHT22;29727;47.606;19.130;2022-12-24T03:53:56;8.10;87.90
44063;DHT22;29727;47.606;19.130;2022-12-24T03:56:23;8.10;88.00
44063;DHT22;29727;47.606;19.130;2022-12-24T03:58:48;8.10;88.00
44063;DHT22;29727;47.606;19.130;2022-12-24T04:01:15;8.20;88.40
44063;DHT22;29727;47.606;19.130;2022-12-24T04:03:42;8.20;88.50
44063;DHT22;29727;47.606;19.130;2022-12-24T04:06:13;8.20;88.30
44063;DHT22;29727;47.606;19.130;2022-12-24T04:08:39;8.20;88.20
44063;DHT22;29727;47.606;19.130;2022-12-24T04:11:06;8.20;88.50
44063;DHT22;29727;47.606;19.130;2022-12-24T04:13:32;8.20;88.30
44063;DHT22;29727;47.606;19.130;2022-12-24T04:16:03;8.20;88.00
44063;DHT22;29727;47.606;19.130;2022-12-24T04:18:29;8.20;87.70
44063;DHT22;29727;47.606;19.130;2022-12-24T04:20:56;8.20;87.80
44063;DHT22;29727;47.606;19.130;2022-12-24T04:23:22;8.30;87.60
44063;DHT22;29727;47.606;19.130;2022-12-24T04:25:48;8.30;87.50
44063;DHT22;29727;47.606;19.130;2022-12-24T04:28:14;8.30;87.50
44063;DHT22;29727;47.606;19.130;2022-12-24T04:30:40;8.30;87.20
44063;DHT22;29727;47.606;19.130;2022-12-24T04:33:06;8.30;86.80
44063;DHT22;29727;47.606;19.130;2022-12-24T04:35:32;8.30;86.50
44063;DHT22;29727;47.606;19.130;2022-12-24T04:37:58;8.40;85.30
44063;DHT22;29727;47.606;19.130;2022-12-24T04:40:24;8.30;85.70
44063;DHT22;29727;47.606;19.130;2022-12-24T04:42:49;8.30;86.00
44063;DHT22;29727;47.606;19.130;2022-12-24T04:45:16;8.30;86.00
44063;DHT22;29727;47.606;19.130;2022-12-24T04:47:42;8.30;85.90
44063;DHT22;29727;47.606;19.130;2022-12-24T04:50:09;8.30;86.20
44063;DHT22;29727;47.606;19.130;2022-12-24T04:52:34;8.20;86.40
44063;DHT22;29727;47.606;19.130;2022-12-24T04:55:01;8.20;86.60
44063;DHT22;29727;47.606;19.130;2022-12-24T04:57:26;8.20;86.80
44063;DHT22;29727;47.606;19.130;2022-12-24T04:59:52;8.20;87.30
44063;DHT22;29727;47.606;19.130;2022-12-24T05:02:18;8.20;87.60
44063;DHT22;29727;47.606;19.130;2022-12-24T05:04:44;8.20;87.70
44063;DHT22;29727;47.606;19.130;2022-12-24T05:07:09;8.20;88.00
44063;DHT22;29727;47.606;19.130;2022-12-24T05:09:35;8.20;87.70
44063;DHT22;29727;47.606;19.130;2022-12-24T05:12:01;8.20;87.50
44063;DHT22;29727;47.606;19.130;2022-12-24T05:14:26;8.20;87.20
44063;DHT22;29727;47.606;19.130;2022-12-24T05:16:52;8.20;87.40
44063;DHT22;29727;47.606;19.130;2022-12-24T05:19:17;8.20;87.20
44063;DHT22;29727;47.606;19.130;2022-12-24T05:21:43;8.20;87.00
44063;DHT22;29727;47.606;19.130;2022-12-24T05:24:12;8.30;86.70
44063;DHT22;29727;47.606;19.130;2022-12-24T05:26:57;8.30;87.00
44063;DHT22;29727;47.606;19.130;2022-12-24T05:29:23;8.30;86.60
44063;DHT22;29727;47.606;19.130;2022-12-24T05:31:49;8.20;86.50
44063;DHT22;29727;47.606;19.130;2022-12-24T05:34:16;8.30;86.80
44063;DHT22;29727;47.606;19.130;2022-12-24T05:36:42;8.30;86.90
44063;DHT22;29727;47.606;19.130;2022-12-24T05:39:15;8.30;86.80
44063;DHT22;29727;47.606;19.130;2022-12-24T05:41:41;8.30;86.90
44063;DHT22;29727;47.606;19.130;2022-12-24T05:44:07;8.30;86.90
44063;DHT22;29727;47.606;19.130;2022-12-24T05:46:33;8.30;86.90
44063;DHT22;29727;47.606;19.130;2022-12-24T05:48:58;8.30;86.90
44063;DHT22;29727;47.606;19.130;2022-12-24T05:51:24;8.30;87.00
44063;DHT22;29727;47.606;19.130;2022-12-24T05:53:50;8.30;87.00
44063;DHT22;29727;47.606;19.130;2022-12-24T05:56:20;8.40;87.00
44063;DHT22;29727;47.606;19.130;2022-12-24T05:58:46;8.30;86.90
44063;DHT22;29727;47.606;19.130;2022-12-24T06:01:13;8.40;86.90
44063;DHT22;29727;47.606;19.130;2022-12-24T06:03:39;8.40;86.30
44063;DHT22;29727;47.606;19.130;2022-12-24T06:06:07;8.40;86.80
44063;DHT22;29727;47.606;19.130;2022-12-24T06:08:34;8.40;86.80
44063;DHT22;29727;47.606;19.130;2022-12-24T06:11:02;8.40;87.10
44063;DHT22;29727;47.606;19.130;2022-12-24T06:13:28;8.40;87.20
44063;DHT22;29727;47.606;19.130;2022-12-24T06:15:58;8.40;87.20
44063;DHT22;29727;47.606;19.130;2022-12-24T06:18:24;8.40;87.30
44063;DHT22;29727;47.606;19.130;2022-12-24T06:20:54;8.40;87.50
44063;DHT22;29727;47.606;19.130;2022-12-24T06:23:21;8.50;87.90
44063;DHT22;29727;47.606;19.130;2022-12-24T06:25:47;8.50;88.20
44063;DHT22;29727;47.606;19.130;2022-12-24T06:28:13;8.50;88.50
44063;DHT22;29727;47.606;19.130;2022-12-24T06:30:39;8.50;88.90
44063;DHT22;29727;47.606;19.130;2022-12-24T06:33:05;8.60;89.10
44063;DHT22;29727;47.606;19.130;2022-12-24T06:35:31;8.60;89.30
44063;DHT22;29727;47.606;19.130;2022-12-24T06:37:57;8.60;88.80
44063;DHT22;29727;47.606;19.130;2022-12-24T06:40:25;8.60;89.30
44063;DHT22;29727;47.606;19.130;2022-12-24T06:42:50;8.60;88.90
44063;DHT22;29727;47.606;19.130;2022-12-24T06:45:16;8.70;88.80
44063;DHT22;29727;47.606;19.130;2022-12-24T06:47:42;8.70;88.80
44063;DHT22;29727;47.606;19.130;2022-12-24T06:50:08;8.70;88.90
44063;DHT22;29727;47.606;19.130;2022-12-24T06:52:35;8.70;88.70
44063;DHT22;29727;47.606;19.130;2022-12-24T06:55:01;8.80;88.90
44063;DHT22;29727;47.606;19.130;2022-12-24T06:57:27;8.90;89.00
44063;DHT22;29727;47.606;19.130;2022-12-24T06:59:52;8.80;88.70
44063;DHT22;29727;47.606;19.130;2022-12-24T07:02:18;8.80;88.30
44063;DHT22;29727;47.606;19.130;2022-12-24T07:04:44;8.80;88.40
44063;DHT22;29727;47.606;19.130;2022-12-24T07:07:09;8.80;88.50
44063;DHT22;29727;47.606;19.130;2022-12-24T07:09:35;8.80;88.60
44063;DHT22;29727;47.606;19.130;2022-12-24T07:12:01;8.80;88.60
44063;DHT22;29727;47.606;19.130;2022-12-24T07:14:28;8.90;88.80
44063;DHT22;29727;47.606;19.130;2022-12-24T07:16:53;8.90;88.80
44063;DHT22;29727;47.606;19.130;2022-12-24T07:19:19;8.90;88.80
44063;DHT22;29727;47.606;19.130;2022-12-24T07:21:45;8.90;88.40
44063;DHT22;29727;47.606;19.130;2022-12-24T07:24:12;9.00;88.40
44063;DHT22;29727;47.606;19.130;2022-12-24T07:26:37;8.90;88.40
44063;DHT22;29727;47.606;19.130;2022-12-24T07:29:03;8.90;88.40
44063;DHT22;29727;47.606;19.130;2022-12-24T07:31:28;9.00;88.40
44063;DHT22;29727;47.606;19.130;2022-12-24T07:33:54;9.00;87.90
44063;DHT22;29727;47.606;19.130;2022-12-24T07:36:20;9.00;87.70
44063;DHT22;29727;47.606;19.130;2022-12-24T07:38:47;9.00;87.60
44063;DHT22;29727;47.606;19.130;2022-12-24T07:41:13;9.00;87.50
44063;DHT22;29727;47.606;19.130;2022-12-24T07:43:39;9.00;87.20
44063;DHT22;29727;47.606;19.130;2022-12-24T07:51:16;9.00;86.00
44063;DHT22;29727;47.606;19.130;2022-12-24T07:53:42;9.00;86.20
44063;DHT22;29727;47.606;19.130;2022-12-24T07:56:13;8.90;86.50
44063;DHT22;29727;47.606;19.130;2022-12-24T07:58:40;8.90;86.60
44063;DHT22;29727;47.606;19.130;2022-12-24T08:01:06;8.90;86.80
44063;DHT22;29727;47.606;19.130;2022-12-24T08:03:31;8.90;86.90
44063;DHT22;29727;47.606;19.130;2022-12-24T08:05:57;9.00;87.20
44063;DHT22;29727;47.606;19.130;2022-12-24T08:08:23;8.90;87.30
44063;DHT22;29727;47.606;19.130;2022-12-24T08:10:49;9.00;87.40
44063;DHT22;29727;47.606;19.130;2022-12-24T08:13:15;9.00;87.30
44063;DHT22;29727;47.606;19.130;2022-12-24T08:15:41;9.00;87.00
44063;DHT22;29727;47.606;19.130;2022-12-24T08:18:07;9.00;86.60
44063;DHT22;29727;47.606;19.130;2022-12-24T08:20:33;9.00;87.00
44063;DHT22;29727;47.606;19.130;2022-12-24T08:22:58;9.00;87.20
44063;DHT22;29727;47.606;19.130;2022-12-24T08:25:24;9.00;87.20
44063;DHT22;29727;47.606;19.130;2022-12-24T08:27:50;9.00;87.60
44063;DHT22;29727;47.606;19.130;2022-12-24T08:30:15;9.10;87.40
44063;DHT22;29727;47.606;19.130;2022-12-24T08:32:41;9.10;87.30
44063;DHT22;29727;47.606;19.130;2022-12-24T08:35:07;9.10;87.10
44063;DHT22;29727;47.606;19.130;2022-12-24T08:37:33;9.10;86.90
44063;DHT22;29727;47.606;19.130;2022-12-24T08:39:58;9.10;87.40
44063;DHT22;29727;47.606;19.130;2022-12-24T08:42:24;9.10;87.90
44063;DHT22;29727;47.606;19.130;2022-12-24T08:44:50;9.10;88.00
44063;DHT22;29727;47.606;19.130;2022-12-24T08:47:15;9.10;88.50
44063;DHT22;29727;47.606;19.130;2022-12-24T08:49:41;9.10;89.00
44063;DHT22;29727;47.606;19.130;2022-12-24T08:52:06;9.10;88.70
44063;DHT22;29727;47.606;19.130;2022-12-24T08:54:32;9.20;88.90
44063;DHT22;29727;47.606;19.130;2022-12-24T08:56:58;9.20;88.60
44063;DHT22;29727;47.606;19.130;2022-12-24T08:59:23;10.10;89.10
44063;DHT22;29727;47.606;19.130;2022-12-24T09:01:49;9.20;88.60
44063;DHT22;29727;47.606;19.130;2022-12-24T09:04:15;9.30;88.90
44063;DHT22;29727;47.606;19.130;2022-12-24T09:06:40;9.30;88.20
44063;DHT22;29727;47.606;19.130;2022-12-24T09:09:06;9.30;88.70
44063;DHT22;29727;47.606;19.130;2022-12-24T09:11:33;9.30;89.00
44063;DHT22;29727;47.606;19.130;2022-12-24T09:14:00;9.30;88.90
44063;DHT22;29727;47.606;19.130;2022-12-24T09:16:25;9.30;88.90
44063;DHT22;29727;47.606;19.130;2022-12-24T09:18:51;9.30;89.10
44063;DHT22;29727;47.606;19.130;2022-12-24T09:21:17;9.40;89.60
44063;DHT22;29727;47.606;19.130;2022-12-24T09:23:45;9.40;90.00
44063;DHT22;29727;47.606;19.130;2022-12-24T09:26:17;9.40;90.10
44063;DHT22;29727;47.606;19.130;2022-12-24T09:28:43;9.50;90.30
44063;DHT22;29727;47.606;19.130;2022-12-24T09:31:10;9.50;90.40
44063;DHT22;29727;47.606;19.130;2022-12-24T09:33:38;9.60;90.50
44063;DHT22;29727;47.606;19.130;2022-12-24T09:36:04;10.10;90.50
44063;DHT22;29727;47.606;19.130;2022-12-24T09:38:30;9.70;90.60
44063;DHT22;29727;47.606;19.130;2022-12-24T09:40:57;9.80;90.60
44063;DHT22;29727;47.606;19.130;2022-12-24T09:43:26;9.90;90.60
44063;DHT22;29727;47.606;19.130;2022-12-24T09:48:33;10.00;90.60
44063;DHT22;29727;47.606;19.130;2022-12-24T09:51:05;10.10;90.60
44063;DHT22;29727;47.606;19.130;2022-12-24T09:53:47;10.20;90.70
44063;DHT22;29727;47.606;19.130;2022-12-24T09:56:30;10.30;90.70
44063;DHT22;29727;47.606;19.130;2022-12-24T09:59:01;10.30;90.70
44063;DHT22;29727;47.606;19.130;2022-12-24T10:01:30;10.40;90.80
44063;DHT22;29727;47.606;19.130;2022-12-24T10:04:06;10.50;90.90
44063;DHT22;29727;47.606;19.130;2022-12-24T10:07:05;10.60;90.90
44063;DHT22;29727;47.606;19.130;2022-12-24T10:09:44;10.60;90.90
44063;DHT22;29727;47.606;19.130;2022-12-24T10:12:21;10.80;90.80
44063;DHT22;29727;47.606;19.130;2022-12-24T10:23:38;11.10;90.60
44063;DHT22;29727;47.606;19.130;2022-12-24T10:26:25;11.10;90.70
44063;DHT22;29727;47.606;19.130;2022-12-24T10:29:05;11.20;90.40
44063;DHT22;29727;47.606;19.130;2022-12-24T10:31:40;11.20;89.70
44063;DHT22;29727;47.606;19.130;2022-12-24T10:34:20;11.40;85.20
44063;DHT22;29727;47.606;19.130;2022-12-24T10:36:46;11.40;85.70
44063;DHT22;29727;47.606;19.130;2022-12-24T10:39:18;11.50;84.90
44063;DHT22;29727;47.606;19.130;2022-12-24T10:41:50;11.70;84.50
44063;DHT22;29727;47.606;19.130;2022-12-24T10:44:20;11.80;84.60
44063;DHT22;29727;47.606;19.130;2022-12-24T10:46:46;11.90;84.50
44063;DHT22;29727;47.606;19.130;2022-12-24T10:49:29;12.00;83.60
44063;DHT22;29727;47.606;19.130;2022-12-24T10:52:02;12.10;83.20
44063;DHT22;29727;47.606;19.130;2022-12-24T10:54:28;12.20;83.70
44063;DHT22;29727;47.606;19.130;2022-12-24T10:56:58;12.30;83.90
44063;DHT22;29727;47.606;19.130;2022-12-24T11:02:00;12.50;84.30
44063;DHT22;29727;47.606;19.130;2022-12-24T11:04:31;12.50;84.30
44063;DHT22;29727;47.606;19.130;2022-12-24T11:07:04;12.60;82.80
44063;DHT22;29727;47.606;19.130;2022-12-24T11:09:31;12.60;82.30
44063;DHT22;29727;47.606;19.130;2022-12-24T11:11:58;12.60;79.60
44063;DHT22;29727;47.606;19.130;2022-12-24T11:14:26;12.70;79.70
44063;DHT22;29727;47.606;19.130;2022-12-24T11:16:55;12.70;78.40
44063;DHT22;29727;47.606;19.130;2022-12-24T11:19:32;12.80;77.90
44063;DHT22;29727;47.606;19.130;2022-12-24T11:22:05;12.90;77.70
44063;DHT22;29727;47.606;19.130;2022-12-24T11:24:33;13.00;75.40
44063;DHT22;29727;47.606;19.130;2022-12-24T11:29:47;13.10;74.10
44063;DHT22;29727;47.606;19.130;2022-12-24T11:32:20;13.10;71.70
44063;DHT22;29727;47.606;19.130;2022-12-24T11:34:47;13.20;72.20
44063;DHT22;29727;47.606;19.130;2022-12-24T11:37:22;13.30;70.00
44063;DHT22;29727;47.606;19.130;2022-12-24T11:39:53;13.30;70.30
44063;DHT22;29727;47.606;19.130;2022-12-24T11:42:35;13.40;69.50
44063;DHT22;29727;47.606;19.130;2022-12-24T11:45:17;13.40;67.80
44063;DHT22;29727;47.606;19.130;2022-12-24T11:47:44;13.40;66.80
44063;DHT22;29727;47.606;19.130;2022-12-24T11:58:41;13.40;67.80
44063;DHT22;29727;47.606;19.130;2022-12-24T12:01:16;13.40;66.60
44063;DHT22;29727;47.606;19.130;2022-12-24T12:03:49;13.40;66.90
44063;DHT22;29727;47.606;19.130;2022-12-24T12:06:27;13.50;66.70
44063;DHT22;29727;47.606;19.130;2022-12-24T12:09:05;13.60;66.00
44063;DHT22;29727;47.606;19.130;2022-12-24T12:11:33;13.50;66.50
44063;DHT22;29727;47.606;19.130;2022-12-24T12:14:00;13.60;66.00
44063;DHT22;29727;47.606;19.130;2022-12-24T12:16:36;13.60;66.80
44063;DHT22;29727;47.606;19.130;2022-12-24T12:19:24;13.70;65.10
44063;DHT22;29727;47.606;19.130;2022-12-24T12:21:51;13.70;65.30
44063;DHT22;29727;47.606;19.130;2022-12-24T12:27:01;13.80;65.50
44063;DHT22;29727;47.606;19.130;2022-12-24T12:29:35;13.80;64.70
44063;DHT22;29727;47.606;19.130;2022-12-24T12:32:15;13.80;65.80
44063;DHT22;29727;47.606;19.130;2022-12-24T12:35:00;13.80;65.70
44063;DHT22;29727;47.606;19.130;2022-12-24T12:37:43;13.70;65.60
44063;DHT22;29727;47.606;19.130;2022-12-24T12:40:16;13.70;66.40
44063;DHT22;29727;47.606;19.130;2022-12-24T12:43:02;13.70;65.90
44063;DHT22;29727;47.606;19.130;2022-12-24T12:51:01;13.60;65.90
44063;DHT22;29727;47.606;19.130;2022-12-24T12:53:42;13.60;66.00
44063;DHT22;29727;47.606;19.130;2022-12-24T12:56:25;13.60;66.00
44063;DHT22;29727;47.606;19.130;2022-12-24T12:59:07;13.50;66.50
44063;DHT22;29727;47.606;19.130;2022-12-24T13:15:23;13.50;67.60
44063;DHT22;29727;47.606;19.130;2022-12-24T13:20:48;13.50;67.90
44063;DHT22;29727;47.606;19.130;2022-12-24T13:23:17;13.50;67.30
44063;DHT22;29727;47.606;19.130;2022-12-24T13:25:51;13.50;67.70
44063;DHT22;29727;47.606;19.130;2022-12-24T13:40:53;13.80;66.50
44063;DHT22;29727;47.606;19.130;2022-12-24T13:43:18;13.80;66.70
44063;DHT22;29727;47.606;19.130;2022-12-24T13:45:49;13.80;66.30
44063;DHT22;29727;47.606;19.130;2022-12-24T13:53:43;13.80;65.00
44063;DHT22;29727;47.606;19.130;2022-12-24T13:58:45;13.60;66.10
44063;DHT22;29727;47.606;19.130;2022-12-24T14:01:17;13.70;66.10
44063;DHT22;29727;47.606;19.130;2022-12-24T14:03:50;13.70;65.60
44063;DHT22;29727;47.606;19.130;2022-12-24T14:06:21;13.70;65.80
44063;DHT22;29727;47.606;19.130;2022-12-24T14:08:49;13.70;65.10
44063;DHT22;29727;47.606;19.130;2022-12-24T14:11:18;13.70;65.10
44063;DHT22;29727;47.606;19.130;2022-12-24T14:21:34;13.60;65.10
44063;DHT22;29727;47.606;19.130;2022-12-24T14:24:23;13.60;65.40
44063;DHT22;29727;47.606;19.130;2022-12-24T14:29:36;13.60;65.70
44063;DHT22;29727;47.606;19.130;2022-12-24T14:32:12;13.60;66.20
44063;DHT22;29727;47.606;19.130;2022-12-24T14:34:38;13.60;66.30
44063;DHT22;29727;47.606;19.130;2022-12-24T14:37:04;13.50;66.50
44063;DHT22;29727;47.606;19.130;2022-12-24T14:39:33;13.50;67.00
44063;DHT22;29727;47.606;19.130;2022-12-24T14:42:19;13.50;67.10
44063;DHT22;29727;47.606;19.130;2022-12-24T14:47:39;13.40;67.80
44063;DHT22;29727;47.606;19.130;2022-12-24T14:55:43;13.30;68.80
44063;DHT22;29727;47.606;19.130;2022-12-24T14:58:29;13.20;69.40
44063;DHT22;29727;47.606;19.130;2022-12-24T15:00:58;13.20;69.90
44063;DHT22;29727;47.606;19.130;2022-12-24T15:03:27;13.20;70.10
44063;DHT22;29727;47.606;19.130;2022-12-24T15:05:59;13.10;70.20
44063;DHT22;29727;47.606;19.130;2022-12-24T15:08:36;13.10;70.20
44063;DHT22;29727;47.606;19.130;2022-12-24T15:11:08;13.10;70.40
44063;DHT22;29727;47.606;19.130;2022-12-24T15:13:40;13.10;70.50
44063;DHT22;29727;47.606;19.130;2022-12-24T15:16:09;13.10;70.60
44063;DHT22;29727;47.606;19.130;2022-12-24T15:18:47;13.10;70.60
44063;DHT22;29727;47.606;19.130;2022-12-24T15:21:33;13.10;70.60
44063;DHT22;29727;47.606;19.130;2022-12-24T15:24:02;13.10;70.70
44063;DHT22;29727;47.606;19.130;2022-12-24T15:26:31;13.10;70.60
44063;DHT22;29727;47.606;19.130;2022-12-24T15:28:58;13.10;70.50
44063;DHT22;29727;47.606;19.130;2022-12-24T15:31:26;13.10;70.50
44063;DHT22;29727;47.606;19.130;2022-12-24T15:33:55;13.10;70.20
44063;DHT22;29727;47.606;19.130;2022-12-24T15:36:35;13.00;70.50
44063;DHT22;29727;47.606;19.130;2022-12-24T15:39:06;13.00;70.40
44063;DHT22;29727;47.606;19.130;2022-12-24T15:41:41;13.00;70.40
44063;DHT22;29727;47.606;19.130;2022-12-24T15:44:30;13.00;70.50
44063;DHT22;29727;47.606;19.130;2022-12-24T15:47:01;12.90;70.00
44063;DHT22;29727;47.606;19.130;2022-12-24T15:49:29;12.90;69.80
44063;DHT22;29727;47.606;19.130;2022-12-24T15:52:06;12.80;70.00
44063;DHT22;29727;47.606;19.130;2022-12-24T15:54:33;12.80;69.20
44063;DHT22;29727;47.606;19.130;2022-12-24T15:57:11;12.70;69.30
44063;DHT22;29727;47.606;19.130;2022-12-24T15:59:37;12.60;68.10
44063;DHT22;29727;47.606;19.130;2022-12-24T16:02:41;12.50;67.40
44063;DHT22;29727;47.606;19.130;2022-12-24T16:07:59;12.40;66.80
44063;DHT22;29727;47.606;19.130;2022-12-24T16:10:40;12.40;66.40
44063;DHT22;29727;47.606;19.130;2022-12-24T16:13:27;12.40;66.60
44063;DHT22;29727;47.606;19.130;2022-12-24T16:15:56;12.40;66.50
44063;DHT22;29727;47.606;19.130;2022-12-24T16:18:32;12.30;66.10
44063;DHT22;29727;47.606;19.130;2022-12-24T17:15:48;12.10;68.50
44063;DHT22;29727;47.606;19.130;2022-12-24T17:18:13;12.20;72.50
44063;DHT22;29727;47.606;19.130;2022-12-24T17:20:39;12.30;71.80
44063;DHT22;29727;47.606;19.130;2022-12-24T17:23:05;12.40;70.40
44063;DHT22;29727;47.606;19.130;2022-12-24T17:25:30;12.50;66.30
44063;DHT22;29727;47.606;19.130;2022-12-24T17:27:56;12.50;65.50
44063;DHT22;29727;47.606;19.130;2022-12-24T17:30:22;12.50;65.50
44063;DHT22;29727;47.606;19.130;2022-12-24T17:32:47;12.50;65.50
44063;DHT22;29727;47.606;19.130;2022-12-24T17:35:13;12.40;65.50
44063;DHT22;29727;47.606;19.130;2022-12-24T17:37:39;12.40;65.60
44063;DHT22;29727;47.606;19.130;2022-12-24T17:40:06;12.30;65.90
44063;DHT22;29727;47.606;19.130;2022-12-24T17:42:31;12.30;66.30
44063;DHT22;29727;47.606;19.130;2022-12-24T17:44:57;12.20;66.40
44063;DHT22;29727;47.606;19.130;2022-12-24T18:26:58;11.40;69.70
44063;DHT22;29727;47.606;19.130;2022-12-24T18:29:23;11.40;70.30
44063;DHT22;29727;47.606;19.130;2022-12-24T18:31:49;11.30;70.40
44063;DHT22;29727;47.606;19.130;2022-12-24T18:34:15;11.30;70.90
44063;DHT22;29727;47.606;19.130;2022-12-24T18:36:41;11.20;71.70
44063;DHT22;29727;47.606;19.130;2022-12-24T18:39:07;11.20;71.40
44063;DHT22;29727;47.606;19.130;2022-12-24T18:41:32;11.10;71.50
44063;DHT22;29727;47.606;19.130;2022-12-24T18:44:00;11.10;71.80
44063;DHT22;29727;47.606;19.130;2022-12-24T18:46:28;11.00;72.30
44063;DHT22;29727;47.606;19.130;2022-12-24T18:48:55;10.90;72.80
44063;DHT22;29727;47.606;19.130;2022-12-24T18:51:25;10.80;73.30
44063;DHT22;29727;47.606;19.130;2022-12-24T18:53:52;10.80;73.40
44063;DHT22;29727;47.606;19.130;2022-12-24T18:56:20;10.70;73.50
44063;DHT22;29727;47.606;19.130;2022-12-24T18:58:46;10.70;73.60
44063;DHT22;29727;47.606;19.130;2022-12-24T19:01:18;10.60;73.30
44063;DHT22;29727;47.606;19.130;2022-12-24T19:03:44;10.60;73.20
44063;DHT22;29727;47.606;19.130;2022-12-24T19:06:10;10.60;73.40
44063;DHT22;29727;47.606;19.130;2022-12-24T19:08:36;10.50;73.30
44063;DHT22;29727;47.606;19.130;2022-12-24T19:11:03;10.50;73.50
44063;DHT22;29727;47.606;19.130;2022-12-24T19:13:29;10.50;73.60
44063;DHT22;29727;47.606;19.130;2022-12-24T19:15:55;10.50;73.80
44063;DHT22;29727;47.606;19.130;2022-12-24T19:18:22;10.40;73.90